Terminal Aerodrome Forecast
Issued by NWS

Home | Current Version | Previous Version | Text Only | Print | Product List | Glossary On
Versions: 1 2 3 4 5 6 7 8 9 10 11 12 13 14 15 16
000
FTUS44 KCRP 281100
TAFLRD
TAF
KLRD 281133Z 2812/2912 15011KT P6SM SKC
      TEMPO 2812/2814 SCT014
     FM290100 15015G20KT P6SM FEW080
     FM290900 16006KT P6SM SKC=

USA.gov is the U.S. government's official web portal to all federal, state and local government web resources and services.